»·PEaware :: N412DB KGEG-KHQM

N412DB :: KGEG-KHQM

FLIGHT INFORMATION

Flight Status: Arrived
Operator: Privately registered:
United States
More flights under this callsign
Pilot: David B. (29149)
Aircraft: CIRRUS VISIONJET
(SF50)
More flights by this aircraft type
Origin: KGEG Spokane Intl
United States
Destination: KHQM Bowerman
United States
More flights between these airports :: More routes between these airports
Route: GEG V120 EPH V120 SEA V27 ULESS
File this flight plan on PilotEdge
Remarks:
Altitude:
(Current/Filed)
17,500ft
Speed:
(Current/Filed)
285kts
Departed: 16-May-20 10:41 AM
Arrived: 16-May-20 11:48 AM
Distance/Time
Traveled:
263nm/1:07
Distance/Time
To Go:
Arrived

Flight Plot

Page will automatically refresh every two minutes.

Flight plan parsing failed; only flown route is shown


Map Options




Map Legend


Flown Route
Filed Route
Departure Airport
Arrival Airport
Navaid (VOR, NDB)
Fix

Horizontal Profiles

Position Reports

Time Latitude Longitude Heading Altitude Ground
Speed
16-May-20 10:22 47.620654 -117.522608 1 2365ft 0kts
16-May-20 10:23 47.620654 -117.522608 1 2365ft 0kts
16-May-20 10:24 47.620654 -117.522608 1 2365ft 0kts
16-May-20 10:25 47.620654 -117.522608 1 2365ft 0kts
16-May-20 10:26 47.620654 -117.522608 1 2365ft 0kts
16-May-20 10:27 47.620654 -117.522608 1 2365ft 0kts
16-May-20 10:28 47.620654 -117.522608 1 2365ft 0kts
16-May-20 10:29 47.620654 -117.522608 1 2365ft 0kts
16-May-20 10:30 47.620654 -117.522608 1 2365ft 0kts
16-May-20 10:31 47.620654 -117.522608 1 2365ft 0kts
16-May-20 10:32 47.620654 -117.522608 1 2365ft 0kts
16-May-20 10:33 47.620654 -117.522608 1 2365ft 0kts
16-May-20 10:34 47.620654 -117.522608 1 2365ft 0kts
16-May-20 10:35 47.621934 -117.525345 359 2360ft 12kts
16-May-20 10:36 47.624917 -117.524270 44 2350ft 12kts
16-May-20 10:37 47.628098 -117.519466 45 2333ft 19kts
16-May-20 10:38 47.630473 -117.517383 315 2322ft 0kts
16-May-20 10:39 47.630476 -117.517388 315 2322ft 0kts
16-May-20 10:40 47.620380 -117.534741 225 2502ft 135kts
16-May-20 10:41 47.586749 -117.589827 229 4314ft 211kts
16-May-20 10:42 47.560612 -117.672719 261 6344ft 242kts
16-May-20 10:43 47.550810 -117.773872 261 8355ft 252kts
16-May-20 10:44 47.540778 -117.876520 261 10349ft 253kts
16-May-20 10:45 47.530701 -117.978657 261 12348ft 249kts
16-May-20 10:46 47.520761 -118.078465 261 14345ft 242kts
16-May-20 10:47 47.511086 -118.174743 261 16338ft 232kts
16-May-20 10:48 47.501689 -118.267755 261 17502ft 241kts
16-May-20 10:49 47.490932 -118.373261 261 17501ft 272kts
16-May-20 10:50 47.479246 -118.486562 261 17500ft 282kts
16-May-20 10:51 47.467208 -118.602068 261 17500ft 284kts
16-May-20 10:52 47.455124 -118.716849 261 17499ft 285kts
16-May-20 10:53 47.442813 -118.832623 261 17499ft 285kts
16-May-20 10:54 47.430371 -118.948494 261 17499ft 285kts
16-May-20 10:55 47.417802 -119.064390 261 17499ft 285kts
16-May-20 10:56 47.405129 -119.180169 261 17498ft 285kts
16-May-20 10:57 47.392350 -119.295693 261 17499ft 285kts
16-May-20 10:58 47.379469 -119.411427 262 17498ft 285kts
16-May-20 10:59 47.381385 -119.528428 273 17499ft 285kts
16-May-20 11:00 47.385010 -119.645765 273 17499ft 286kts
16-May-20 11:01 47.388527 -119.762861 272 17499ft 286kts
16-May-20 11:02 47.391940 -119.880461 272 17499ft 286kts
16-May-20 11:03 47.395212 -119.997331 272 17499ft 286kts
16-May-20 11:04 47.398380 -120.114764 272 17499ft 286kts
16-May-20 11:05 47.401420 -120.231756 272 17571ft 283kts
16-May-20 11:06 47.404318 -120.348172 272 17582ft 285kts
16-May-20 11:07 47.407118 -120.465229 272 17582ft 285kts
16-May-20 11:08 47.409803 -120.582483 272 17582ft 286kts
16-May-20 11:09 47.412346 -120.698770 271 17582ft 286kts
16-May-20 11:10 47.414799 -120.816371 271 17582ft 286kts
16-May-20 11:11 47.417114 -120.933045 271 17582ft 286kts
16-May-20 11:12 47.419295 -121.048909 271 17582ft 286kts
16-May-20 11:13 47.421386 -121.166303 271 17582ft 286kts
16-May-20 11:14 47.423354 -121.283521 271 17582ft 286kts
16-May-20 11:15 47.425211 -121.401289 271 17582ft 286kts
16-May-20 11:16 47.426934 -121.518194 271 17672ft 283kts
16-May-20 11:17 47.428538 -121.635040 271 17673ft 285kts
16-May-20 11:18 47.430020 -121.751415 271 17386ft 289kts
16-May-20 11:19 47.431355 -121.865786 271 16167ft 268kts
16-May-20 11:21 47.432523 -121.974526 271 15008ft 258kts
16-May-20 11:22 47.433552 -122.079522 271 13883ft 254kts
16-May-20 11:23 47.434482 -122.183684 271 12765ft 252kts
16-May-20 11:24 47.435305 -122.286817 271 11707ft 248kts
16-May-20 11:25 47.417907 -122.377705 250 11671ft 218kts
16-May-20 11:26 47.396378 -122.462357 249 11679ft 246kts
16-May-20 11:27 47.369683 -122.566231 249 11692ft 286kts
16-May-20 11:28 47.342822 -122.670103 248 11668ft 240kts
16-May-20 11:29 47.319492 -122.759921 248 11673ft 232kts
16-May-20 11:30 47.296384 -122.848603 249 11522ft 237kts
16-May-20 11:31 47.272721 -122.939061 249 10273ft 237kts
16-May-20 11:32 47.248972 -123.029506 249 9017ft 237kts
16-May-20 11:33 47.225129 -123.119953 249 7758ft 236kts
16-May-20 11:33 47.205393 -123.194559 249 6720ft 235kts
16-May-20 11:35 47.177784 -123.298468 248 5271ft 233kts
16-May-20 11:36 47.154141 -123.386938 249 4037ft 231kts
16-May-20 11:37 47.130406 -123.473903 245 3049ft 216kts
16-May-20 11:37 47.102077 -123.526363 219 2899ft 190kts
16-May-20 11:39 47.056122 -123.576411 223 2898ft 169kts
16-May-20 11:39 47.028148 -123.615461 224 2899ft 163kts
16-May-20 11:40 47.004171 -123.667342 257 2900ft 159kts
16-May-20 11:41 46.996581 -123.728106 259 2892ft 124kts
16-May-20 11:42 46.991159 -123.772996 260 2479ft 106kts
16-May-20 11:43 46.985979 -123.815648 259 1811ft 106kts
16-May-20 11:44 46.980798 -123.858164 260 1140ft 106kts
16-May-20 11:45 46.975604 -123.900607 259 474ft 105kts
16-May-20 11:46 46.971245 -123.936556 258 19ft 46kts
16-May-20 11:47 46.972214 -123.936737 80 18ft 17kts
16-May-20 11:48 46.972868 -123.933861 351 18ft 0kts
16-May-20 11:49 46.972868 -123.933861 351 18ft 0kts

Navigation Log

Ident Type
Flight plan parsing failed, navigation log unavailable